Terminal Aerodrome Forecast
Issued by NWS

Home | Current Version | Previous Version | Text Only | Print | Product List | Glossary On
Versions: 1 2 3 4 5 6 7 8 9 10 11 12 13
000
FTUS44 KMAF 261724
TAFINK
TAF
KINK 261724Z 2618/2718 08009KT P6SM SCT090 BKN150
      TEMPO 2622/2702 VRB25G35KT 6SM TSRA BKN080CB
     FM270200 11006KT P6SM SCT080 BKN150
      TEMPO 2702/2706 VRB25G35KT 6SM TSRA BKN070CB=

USA.gov is the U.S. government's official web portal to all federal, state and local government web resources and services.